sensor_id;sensor_type;location;lat;lon;timestamp;pressure;altitude;pressure_sealevel;temperature;humidity
84926;BME280;75187;48.190;16.294;2024-02-21T00:00:52;100071.44;;;10.48;61.20
84926;BME280;75187;48.190;16.294;2024-02-21T00:03:17;100144.84;;;10.94;60.52
84926;BME280;75187;48.190;16.294;2024-02-21T00:05:43;100117.66;;;10.80;60.09
84926;BME280;75187;48.190;16.294;2024-02-21T00:08:08;100135.44;;;10.90;59.41
84926;BME280;75187;48.190;16.294;2024-02-21T00:10:33;100146.94;;;10.89;60.56
84926;BME280;75187;48.190;16.294;2024-02-21T00:13:00;100100.81;;;10.56;60.45
84926;BME280;75187;48.190;16.294;2024-02-21T00:15:26;100105.25;;;10.68;60.34
84926;BME280;75187;48.190;16.294;2024-02-21T00:17:51;100130.25;;;10.89;60.59
84926;BME280;75187;48.190;16.294;2024-02-21T00:20:17;100049.41;;;10.49;59.97
84926;BME280;75187;48.190;16.294;2024-02-21T00:22:43;100138.91;;;10.91;59.78
84926;BME280;75187;48.190;16.294;2024-02-21T00:25:08;100147.56;;;10.93;60.39
84926;BME280;75187;48.190;16.294;2024-02-21T00:27:33;100147.25;;;10.85;59.57
84926;BME280;75187;48.190;16.294;2024-02-21T00:29:59;100140.41;;;10.95;59.83
84926;BME280;75187;48.190;16.294;2024-02-21T00:32:24;100130.06;;;10.92;59.31
84926;BME280;75187;48.190;16.294;2024-02-21T00:34:49;100124.03;;;10.90;60.39
84926;BME280;75187;48.190;16.294;2024-02-21T00:37:15;100073.81;;;10.65;60.23
84926;BME280;75187;48.190;16.294;2024-02-21T00:39:40;100127.03;;;10.98;59.45
84926;BME280;75187;48.190;16.294;2024-02-21T00:42:07;100093.47;;;10.73;60.52
84926;BME280;75187;48.190;16.294;2024-02-21T00:44:33;100113.19;;;10.94;60.00
84926;BME280;75187;48.190;16.294;2024-02-21T00:46:58;100033.03;;;10.44;59.34
84926;BME280;75187;48.190;16.294;2024-02-21T00:49:24;100078.50;;;10.74;60.38
84926;BME280;75187;48.190;16.294;2024-02-21T00:51:49;100121.75;;;10.98;59.47
84926;BME280;75187;48.190;16.294;2024-02-21T00:54:14;100105.56;;;10.90;59.30
84926;BME280;75187;48.190;16.294;2024-02-21T00:56:41;100072.13;;;10.64;58.84
84926;BME280;75187;48.190;16.294;2024-02-21T00:59:06;100115.47;;;10.86;59.62
84926;BME280;75187;48.190;16.294;2024-02-21T01:01:32;100115.16;;;10.91;59.80
84926;BME280;75187;48.190;16.294;2024-02-21T01:03:57;100077.19;;;10.67;58.96
84926;BME280;75187;48.190;16.294;2024-02-21T01:06:22;100069.00;;;10.71;59.36
84926;BME280;75187;48.190;16.294;2024-02-21T01:08:48;100112.97;;;10.97;58.92
84926;BME280;75187;48.190;16.294;2024-02-21T01:11:14;100105.78;;;10.87;59.03
84926;BME280;75187;48.190;16.294;2024-02-21T01:13:40;100061.28;;;10.68;58.59
84926;BME280;75187;48.190;16.294;2024-02-21T01:16:05;100098.59;;;10.89;59.09
84926;BME280;75187;48.190;16.294;2024-02-21T01:18:32;100052.22;;;10.72;59.00
84926;BME280;75187;48.190;16.294;2024-02-21T01:20:57;100059.50;;;10.69;58.35
84926;BME280;75187;48.190;16.294;2024-02-21T01:23:24;100060.34;;;10.69;58.72
84926;BME280;75187;48.190;16.294;2024-02-21T01:25:49;100021.56;;;10.45;58.27
84926;BME280;75187;48.190;16.294;2024-02-21T01:28:14;100096.16;;;10.86;58.93
84926;BME280;75187;48.190;16.294;2024-02-21T01:30:40;100086.41;;;10.74;58.88
84926;BME280;75187;48.190;16.294;2024-02-21T01:33:05;100080.94;;;10.77;59.03
84926;BME280;75187;48.190;16.294;2024-02-21T01:35:31;100070.69;;;10.72;58.41
84926;BME280;75187;48.190;16.294;2024-02-21T01:37:56;100085.25;;;10.78;59.55
84926;BME280;75187;48.190;16.294;2024-02-21T01:40:21;100069.09;;;10.70;58.67
84926;BME280;75187;48.190;16.294;2024-02-21T01:42:47;100082.63;;;10.78;59.91
84926;BME280;75187;48.190;16.294;2024-02-21T01:45:13;100080.94;;;10.77;58.56
84926;BME280;75187;48.190;16.294;2024-02-21T01:47:39;100073.28;;;10.60;59.11
84926;BME280;75187;48.190;16.294;2024-02-21T01:50:05;100066.13;;;10.62;59.11
84926;BME280;75187;48.190;16.294;2024-02-21T01:52:31;100023.44;;;10.43;59.25
84926;BME280;75187;48.190;16.294;2024-02-21T01:54:58;100010.44;;;10.40;59.54
84926;BME280;75187;48.190;16.294;2024-02-21T01:57:24;100014.03;;;10.39;59.19
84926;BME280;75187;48.190;16.294;2024-02-21T01:59:49;100028.16;;;10.38;58.59
84926;BME280;75187;48.190;16.294;2024-02-21T02:02:15;100014.63;;;10.30;60.40
84926;BME280;75187;48.190;16.294;2024-02-21T02:04:42;99993.56;;;10.30;59.55
84926;BME280;75187;48.190;16.294;2024-02-21T02:07:08;100012.75;;;10.32;58.79
84926;BME280;75187;48.190;16.294;2024-02-21T02:09:33;100009.16;;;10.33;60.01
84926;BME280;75187;48.190;16.294;2024-02-21T02:12:00;100047.00;;;10.58;58.88
84926;BME280;75187;48.190;16.294;2024-02-21T02:14:25;100049.56;;;10.60;59.58
84926;BME280;75187;48.190;16.294;2024-02-21T02:16:50;100039.25;;;10.43;59.54
84926;BME280;75187;48.190;16.294;2024-02-21T02:19:16;100042.22;;;10.51;59.44
84926;BME280;75187;48.190;16.294;2024-02-21T02:21:50;100002.41;;;10.29;59.05
84926;BME280;75187;48.190;16.294;2024-02-21T02:24:22;100041.06;;;10.55;59.24
84926;BME280;75187;48.190;16.294;2024-02-21T02:26:49;100022.75;;;10.53;59.12
84926;BME280;75187;48.190;16.294;2024-02-21T02:29:14;100035.47;;;10.47;58.87
84926;BME280;75187;48.190;16.294;2024-02-21T02:31:40;100002.03;;;10.21;59.40
84926;BME280;75187;48.190;16.294;2024-02-21T02:34:05;100040.34;;;10.53;60.02
84926;BME280;75187;48.190;16.294;2024-02-21T02:36:32;99986.78;;;10.26;59.00
84926;BME280;75187;48.190;16.294;2024-02-21T02:38:58;100037.53;;;10.56;58.90
84926;BME280;75187;48.190;16.294;2024-02-21T02:41:23;100004.78;;;10.46;58.81
84926;BME280;75187;48.190;16.294;2024-02-21T02:43:49;100034.56;;;10.60;59.31
84926;BME280;75187;48.190;16.294;2024-02-21T02:46:14;99978.13;;;10.24;58.89
84926;BME280;75187;48.190;16.294;2024-02-21T02:48:39;99977.38;;;10.22;59.27
84926;BME280;75187;48.190;16.294;2024-02-21T02:51:05;100029.50;;;10.57;59.40
84926;BME280;75187;48.190;16.294;2024-02-21T02:53:30;99986.91;;;10.37;59.93
84926;BME280;75187;48.190;16.294;2024-02-21T02:55:55;100023.38;;;10.57;58.69
84926;BME280;75187;48.190;16.294;2024-02-21T02:58:21;100022.75;;;10.66;58.71
84926;BME280;75187;48.190;16.294;2024-02-21T03:00:46;100014.31;;;10.61;58.61
84926;BME280;75187;48.190;16.294;2024-02-21T03:03:11;100022.75;;;10.66;58.33
84926;BME280;75187;48.190;16.294;2024-02-21T03:05:37;99984.06;;;10.40;59.04
84926;BME280;75187;48.190;16.294;2024-02-21T03:08:02;99974.47;;;10.39;57.90
84926;BME280;75187;48.190;16.294;2024-02-21T03:10:31;100021.94;;;10.65;58.64
84926;BME280;75187;48.190;16.294;2024-02-21T03:12:57;99968.03;;;10.31;59.11
84926;BME280;75187;48.190;16.294;2024-02-21T03:15:22;100012.63;;;10.60;58.39
84926;BME280;75187;48.190;16.294;2024-02-21T03:17:48;100019.19;;;10.67;59.02
84926;BME280;75187;48.190;16.294;2024-02-21T03:20:13;99973.88;;;10.36;58.80
84926;BME280;75187;48.190;16.294;2024-02-21T03:22:39;99978.13;;;10.50;59.15
84926;BME280;75187;48.190;16.294;2024-02-21T03:25:05;99991.03;;;10.41;58.94
84926;BME280;75187;48.190;16.294;2024-02-21T03:27:31;100029.94;;;10.64;59.40
84926;BME280;75187;48.190;16.294;2024-02-21T03:29:57;100011.59;;;10.62;58.70
84926;BME280;75187;48.190;16.294;2024-02-21T03:32:22;100014.34;;;10.73;59.16
84926;BME280;75187;48.190;16.294;2024-02-21T03:34:48;99976.09;;;10.54;58.00
84926;BME280;75187;48.190;16.294;2024-02-21T03:37:13;100020.47;;;10.74;58.17
84926;BME280;75187;48.190;16.294;2024-02-21T03:39:39;99992.13;;;10.51;58.14
84926;BME280;75187;48.190;16.294;2024-02-21T03:42:05;99973.16;;;10.46;59.25
84926;BME280;75187;48.190;16.294;2024-02-21T03:44:31;100022.16;;;10.75;59.22
84926;BME280;75187;48.190;16.294;2024-02-21T03:46:58;99980.69;;;10.64;59.03
84926;BME280;75187;48.190;16.294;2024-02-21T03:49:23;100027.59;;;10.86;59.61
84926;BME280;75187;48.190;16.294;2024-02-21T03:51:49;100022.91;;;10.77;59.17
84926;BME280;75187;48.190;16.294;2024-02-21T03:54:14;99971.84;;;10.39;59.59
84926;BME280;75187;48.190;16.294;2024-02-21T03:56:39;100022.75;;;10.66;59.17
84926;BME280;75187;48.190;16.294;2024-02-21T03:59:06;100018.06;;;10.44;59.53
84926;BME280;75187;48.190;16.294;2024-02-21T04:01:32;100027.84;;;10.42;60.34
84926;BME280;75187;48.190;16.294;2024-02-21T04:03:57;100014.88;;;10.39;60.25
84926;BME280;75187;48.190;16.294;2024-02-21T04:06:22;99959.84;;;10.09;59.40
84926;BME280;75187;48.190;16.294;2024-02-21T04:08:48;100018.91;;;10.45;59.41
84926;BME280;75187;48.190;16.294;2024-02-21T04:11:13;100021.19;;;10.37;59.63
84926;BME280;75187;48.190;16.294;2024-02-21T04:13:38;100022.50;;;10.44;59.74
84926;BME280;75187;48.190;16.294;2024-02-21T04:16:04;100012.94;;;10.29;60.41
84926;BME280;75187;48.190;16.294;2024-02-21T04:18:30;99981.50;;;10.26;59.80
84926;BME280;75187;48.190;16.294;2024-02-21T04:20:56;100010.00;;;10.33;59.36
84926;BME280;75187;48.190;16.294;2024-02-21T04:23:21;100006.63;;;10.32;59.97
84926;BME280;75187;48.190;16.294;2024-02-21T04:25:46;99966.94;;;10.21;59.96
84926;BME280;75187;48.190;16.294;2024-02-21T04:28:12;100023.31;;;10.44;60.04
84926;BME280;75187;48.190;16.294;2024-02-21T04:30:37;100018.50;;;10.51;60.00
84926;BME280;75187;48.190;16.294;2024-02-21T04:33:03;100019.97;;;10.55;60.62
84926;BME280;75187;48.190;16.294;2024-02-21T04:35:28;99975.72;;;10.33;59.67
84926;BME280;75187;48.190;16.294;2024-02-21T04:37:53;100021.28;;;10.62;60.46
84926;BME280;75187;48.190;16.294;2024-02-21T04:40:19;99971.41;;;10.32;59.85
84926;BME280;75187;48.190;16.294;2024-02-21T04:42:44;100006.41;;;10.61;60.38
84926;BME280;75187;48.190;16.294;2024-02-21T04:45:10;99992.13;;;10.51;59.60
84926;BME280;75187;48.190;16.294;2024-02-21T04:47:35;100018.56;;;10.63;59.74
84926;BME280;75187;48.190;16.294;2024-02-21T04:50:01;99992.44;;;10.46;60.15
84926;BME280;75187;48.190;16.294;2024-02-21T04:52:26;100009.28;;;10.70;59.47
84926;BME280;75187;48.190;16.294;2024-02-21T04:54:52;100011.09;;;10.70;58.70
84926;BME280;75187;48.190;16.294;2024-02-21T04:57:17;100006.84;;;10.67;59.22
84926;BME280;75187;48.190;16.294;2024-02-21T04:59:44;99946.41;;;10.26;59.39
84926;BME280;75187;48.190;16.294;2024-02-21T05:02:10;100009.34;;;10.56;59.76
84926;BME280;75187;48.190;16.294;2024-02-21T05:04:36;99976.63;;;10.46;59.30
84926;BME280;75187;48.190;16.294;2024-02-21T05:07:03;100005.88;;;10.56;58.55
84926;BME280;75187;48.190;16.294;2024-02-21T05:09:29;99999.31;;;10.49;59.30
84926;BME280;75187;48.190;16.294;2024-02-21T05:11:54;99933.09;;;10.01;58.77
84926;BME280;75187;48.190;16.294;2024-02-21T05:14:20;99913.84;;;9.86;58.39
84926;BME280;75187;48.190;16.294;2024-02-21T05:16:45;100015.25;;;10.33;59.56
84926;BME280;75187;48.190;16.294;2024-02-21T05:19:10;99968.69;;;10.34;59.15
84926;BME280;75187;48.190;16.294;2024-02-21T05:21:35;99952.41;;;10.28;59.21
84926;BME280;75187;48.190;16.294;2024-02-21T05:24:01;99950.72;;;10.27;59.60
84926;BME280;75187;48.190;16.294;2024-02-21T05:26:27;99949.06;;;10.38;58.28
84926;BME280;75187;48.190;16.294;2024-02-21T05:28:53;99974.97;;;10.58;59.48
84926;BME280;75187;48.190;16.294;2024-02-21T05:31:19;99930.63;;;10.38;58.62
84926;BME280;75187;48.190;16.294;2024-02-21T05:33:45;99977.75;;;10.69;58.70
84926;BME280;75187;48.190;16.294;2024-02-21T05:36:11;99980.19;;;10.72;58.41
84926;BME280;75187;48.190;16.294;2024-02-21T05:38:37;99927.38;;;10.47;58.27
84926;BME280;75187;48.190;16.294;2024-02-21T05:41:03;99970.38;;;10.74;57.67
84926;BME280;75187;48.190;16.294;2024-02-21T05:43:28;99942.16;;;10.49;57.46
84926;BME280;75187;48.190;16.294;2024-02-21T05:45:54;99940.56;;;10.47;58.04
84926;BME280;75187;48.190;16.294;2024-02-21T05:48:20;99963.06;;;10.65;57.45
84926;BME280;75187;48.190;16.294;2024-02-21T05:50:45;99888.31;;;10.27;56.77
84926;BME280;75187;48.190;16.294;2024-02-21T05:53:10;99968.75;;;10.59;56.79
84926;BME280;75187;48.190;16.294;2024-02-21T05:55:36;99958.59;;;10.53;58.32
84926;BME280;75187;48.190;16.294;2024-02-21T05:58:01;99971.19;;;10.62;56.66
84926;BME280;75187;48.190;16.294;2024-02-21T06:00:27;99978.44;;;10.58;57.17
84926;BME280;75187;48.190;16.294;2024-02-21T06:02:53;99971.69;;;10.54;56.92
84926;BME280;75187;48.190;16.294;2024-02-21T06:05:18;99965.97;;;10.48;57.63
84926;BME280;75187;48.190;16.294;2024-02-21T06:07:43;99965.31;;;10.44;57.03
84926;BME280;75187;48.190;16.294;2024-02-21T06:10:09;99926.28;;;10.25;56.60
84926;BME280;75187;48.190;16.294;2024-02-21T06:12:34;99951.19;;;10.33;57.33
84926;BME280;75187;48.190;16.294;2024-02-21T06:15:00;99915.97;;;10.08;57.48
84926;BME280;75187;48.190;16.294;2024-02-21T06:17:25;99905.34;;;10.09;57.88
84926;BME280;75187;48.190;16.294;2024-02-21T06:19:50;99917.28;;;10.15;57.24
84926;BME280;75187;48.190;16.294;2024-02-21T06:22:16;99950.47;;;10.43;57.44
84926;BME280;75187;48.190;16.294;2024-02-21T06:24:41;99904.84;;;10.17;57.18
84926;BME280;75187;48.190;16.294;2024-02-21T06:27:07;99956.16;;;10.50;56.90
84926;BME280;75187;48.190;16.294;2024-02-21T06:29:33;99956.28;;;10.48;57.23
84926;BME280;75187;48.190;16.294;2024-02-21T06:31:59;99896.28;;;10.13;56.42
84926;BME280;75187;48.190;16.294;2024-02-21T06:34:24;99953.09;;;10.43;57.39
84926;BME280;75187;48.190;16.294;2024-02-21T06:36:50;99954.69;;;10.46;56.59
84926;BME280;75187;48.190;16.294;2024-02-21T06:39:16;99958.94;;;10.61;57.09
84926;BME280;75187;48.190;16.294;2024-02-21T06:41:41;99941.75;;;10.55;56.65
84926;BME280;75187;48.190;16.294;2024-02-21T06:44:07;99958.84;;;10.62;56.99
84926;BME280;75187;48.190;16.294;2024-02-21T06:46:32;99940.03;;;10.42;56.15
84926;BME280;75187;48.190;16.294;2024-02-21T06:49:02;99956.69;;;10.55;56.15
84926;BME280;75187;48.190;16.294;2024-02-21T06:51:31;99954.28;;;10.52;56.76
84926;BME280;75187;48.190;16.294;2024-02-21T06:53:57;99907.25;;;10.20;56.42
84926;BME280;75187;48.190;16.294;2024-02-21T06:56:23;99950.75;;;10.39;56.16
84926;BME280;75187;48.190;16.294;2024-02-21T06:58:57;99897.53;;;10.08;55.92
84926;BME280;75187;48.190;16.294;2024-02-21T07:01:23;99941.97;;;10.26;57.06
84926;BME280;75187;48.190;16.294;2024-02-21T07:03:49;99915.16;;;10.07;57.12
84926;BME280;75187;48.190;16.294;2024-02-21T07:06:14;99962.75;;;10.31;56.49
84926;BME280;75187;48.190;16.294;2024-02-21T07:08:40;99956.25;;;10.36;57.67
84926;BME280;75187;48.190;16.294;2024-02-21T07:11:06;99927.09;;;10.25;57.33
84926;BME280;75187;48.190;16.294;2024-02-21T07:13:32;99950.88;;;10.38;57.03
84926;BME280;75187;48.190;16.294;2024-02-21T07:15:58;99946.13;;;10.30;56.45
84926;BME280;75187;48.190;16.294;2024-02-21T07:18:24;99905.56;;;10.06;57.63
84926;BME280;75187;48.190;16.294;2024-02-21T07:20:51;99909.91;;;10.20;56.93
84926;BME280;75187;48.190;16.294;2024-02-21T07:23:16;99945.41;;;10.40;56.92
84926;BME280;75187;48.190;16.294;2024-02-21T07:25:41;99938.22;;;10.42;56.53
84926;BME280;75187;48.190;16.294;2024-02-21T07:28:07;99900.53;;;10.16;56.77
84926;BME280;75187;48.190;16.294;2024-02-21T07:30:32;99934.34;;;10.48;56.23
84926;BME280;75187;48.190;16.294;2024-02-21T07:32:57;99913.47;;;10.45;56.48
84926;BME280;75187;48.190;16.294;2024-02-21T07:35:23;99936.91;;;10.62;56.91
84926;BME280;75187;48.190;16.294;2024-02-21T07:37:48;99927.81;;;10.66;59.83
84926;BME280;75187;48.190;16.294;2024-02-21T07:40:15;99886.47;;;11.04;56.22
84926;BME280;75187;48.190;16.294;2024-02-21T07:42:40;99924.22;;;11.67;55.82
84926;BME280;75187;48.190;16.294;2024-02-21T07:45:07;99921.22;;;11.84;55.25
84926;BME280;75187;48.190;16.294;2024-02-21T07:47:33;99870.78;;;11.87;53.93
84926;BME280;75187;48.190;16.294;2024-02-21T07:49:58;99895.50;;;12.33;53.10
84926;BME280;75187;48.190;16.294;2024-02-21T07:52:24;99914.69;;;12.58;52.27
84926;BME280;75187;48.190;16.294;2024-02-21T07:54:50;99886.19;;;12.50;51.76
84926;BME280;75187;48.190;16.294;2024-02-21T07:57:15;99900.19;;;12.74;50.72
84926;BME280;75187;48.190;16.294;2024-02-21T07:59:41;99882.28;;;12.33;50.80
84926;BME280;75187;48.190;16.294;2024-02-21T08:02:07;99846.94;;;11.99;51.47
84926;BME280;75187;48.190;16.294;2024-02-21T08:04:32;99915.34;;;12.15;50.89
84926;BME280;75187;48.190;16.294;2024-02-21T08:06:58;99883.25;;;11.85;51.64
84926;BME280;75187;48.190;16.294;2024-02-21T08:09:28;99860.44;;;11.60;51.08
84926;BME280;75187;48.190;16.294;2024-02-21T08:11:54;99845.13;;;11.40;51.26
84926;BME280;75187;48.190;16.294;2024-02-21T08:14:21;99863.00;;;11.37;51.70
84926;BME280;75187;48.190;16.294;2024-02-21T08:16:46;99840.41;;;11.33;50.93
84926;BME280;75187;48.190;16.294;2024-02-21T08:19:12;99861.69;;;11.55;50.80
84926;BME280;75187;48.190;16.294;2024-02-21T08:21:37;99898.38;;;11.83;51.14
84926;BME280;75187;48.190;16.294;2024-02-21T08:24:03;99845.63;;;11.58;51.03
84926;BME280;75187;48.190;16.294;2024-02-21T08:26:28;99895.25;;;11.78;50.80
84926;BME280;75187;48.190;16.294;2024-02-21T08:28:59;99891.41;;;11.82;50.72
84926;BME280;75187;48.190;16.294;2024-02-21T08:31:28;99852.19;;;11.65;50.30
84926;BME280;75187;48.190;16.294;2024-02-21T08:34:02;99884.28;;;11.95;50.71
84926;BME280;75187;48.190;16.294;2024-02-21T08:36:33;99833.84;;;11.74;50.58
84926;BME280;75187;48.190;16.294;2024-02-21T08:38:58;99877.13;;;12.08;50.91
84926;BME280;75187;48.190;16.294;2024-02-21T08:41:24;99860.81;;;12.14;49.96
84926;BME280;75187;48.190;16.294;2024-02-21T08:43:51;99869.19;;;12.08;48.95
84926;BME280;75187;48.190;16.294;2024-02-21T08:46:17;99872.69;;;12.08;50.09
84926;BME280;75187;48.190;16.294;2024-02-21T08:48:43;99871.94;;;12.06;49.74
84926;BME280;75187;48.190;16.294;2024-02-21T08:51:11;99869.78;;;12.00;49.33
84926;BME280;75187;48.190;16.294;2024-02-21T08:53:36;99873.22;;;11.90;49.63
84926;BME280;75187;48.190;16.294;2024-02-21T08:56:03;99852.50;;;11.84;50.20
84926;BME280;75187;48.190;16.294;2024-02-21T08:58:29;99871.56;;;12.00;50.21
84926;BME280;75187;48.190;16.294;2024-02-21T09:00:54;99824.94;;;11.99;49.96
84926;BME280;75187;48.190;16.294;2024-02-21T09:03:19;99860.38;;;12.87;48.87
84926;BME280;75187;48.190;16.294;2024-02-21T09:05:46;99843.47;;;13.00;47.08
84926;BME280;75187;48.190;16.294;2024-02-21T09:08:12;99855.25;;;13.18;47.47
84926;BME280;75187;48.190;16.294;2024-02-21T09:10:37;99815.28;;;13.10;47.37
84926;BME280;75187;48.190;16.294;2024-02-21T09:13:03;99865.84;;;13.51;46.34
84926;BME280;75187;48.190;16.294;2024-02-21T09:15:29;99840.44;;;13.49;46.34
84926;BME280;75187;48.190;16.294;2024-02-21T09:17:54;99849.19;;;13.60;45.83
84926;BME280;75187;48.190;16.294;2024-02-21T09:20:19;99851.75;;;13.40;45.91
84926;BME280;75187;48.190;16.294;2024-02-21T09:22:45;99845.63;;;13.28;46.43
84926;BME280;75187;48.190;16.294;2024-02-21T09:25:10;99769.56;;;12.75;46.99
84926;BME280;75187;48.190;16.294;2024-02-21T09:27:38;99797.16;;;12.95;47.54
84926;BME280;75187;48.190;16.294;2024-02-21T09:30:05;99813.50;;;13.11;47.07
84926;BME280;75187;48.190;16.294;2024-02-21T09:32:30;99790.19;;;12.94;47.16
84926;BME280;75187;48.190;16.294;2024-02-21T09:34:57;99782.59;;;13.11;47.26
84926;BME280;75187;48.190;16.294;2024-02-21T09:37:22;99814.28;;;13.55;46.14
84926;BME280;75187;48.190;16.294;2024-02-21T09:39:48;99805.84;;;14.13;45.90
84926;BME280;75187;48.190;16.294;2024-02-21T09:42:14;99833.09;;;14.47;44.37
84926;BME280;75187;48.190;16.294;2024-02-21T09:44:44;99830.06;;;14.51;43.16
84926;BME280;75187;48.190;16.294;2024-02-21T09:47:28;99819.69;;;14.28;43.70
84926;BME280;75187;48.190;16.294;2024-02-21T09:49:57;99791.22;;;13.98;44.26
84926;BME280;75187;48.190;16.294;2024-02-21T09:52:24;99819.06;;;14.35;45.21
84926;BME280;75187;48.190;16.294;2024-02-21T09:54:51;99767.53;;;14.17;42.51
84926;BME280;75187;48.190;16.294;2024-02-21T09:57:18;99808.28;;;14.57;43.89
84926;BME280;75187;48.190;16.294;2024-02-21T09:59:44;99775.25;;;14.70;43.25
84926;BME280;75187;48.190;16.294;2024-02-21T10:02:10;99784.13;;;15.20;42.02
84926;BME280;75187;48.190;16.294;2024-02-21T10:04:39;99766.63;;;15.76;42.72
84926;BME280;75187;48.190;16.294;2024-02-21T10:07:05;99775.28;;;16.16;41.23
84926;BME280;75187;48.190;16.294;2024-02-21T10:09:30;99777.53;;;15.73;40.40
84926;BME280;75187;48.190;16.294;2024-02-21T10:12:06;99819.91;;;15.65;41.46
84926;BME280;75187;48.190;16.294;2024-02-21T10:14:32;99767.25;;;14.91;41.45
84926;BME280;75187;48.190;16.294;2024-02-21T10:16:57;99772.72;;;14.69;43.18
84926;BME280;75187;48.190;16.294;2024-02-21T10:19:24;99783.09;;;14.72;43.72
84926;BME280;75187;48.190;16.294;2024-02-21T10:22:03;99808.88;;;14.90;43.58
84926;BME280;75187;48.190;16.294;2024-02-21T10:24:29;99761.94;;;14.61;42.98
84926;BME280;75187;48.190;16.294;2024-02-21T10:29:28;99798.91;;;14.83;44.35
84926;BME280;75187;48.190;16.294;2024-02-21T10:32:04;99803.09;;;15.06;44.66
84926;BME280;75187;48.190;16.294;2024-02-21T10:34:30;99759.69;;;15.26;42.56
84926;BME280;75187;48.190;16.294;2024-02-21T10:37:06;99789.31;;;15.80;41.94
84926;BME280;75187;48.190;16.294;2024-02-21T10:39:32;99795.16;;;15.93;42.06
84926;BME280;75187;48.190;16.294;2024-02-21T10:42:00;99769.69;;;15.62;41.63
84926;BME280;75187;48.190;16.294;2024-02-21T10:44:29;99750.66;;;15.47;41.08
84926;BME280;75187;48.190;16.294;2024-02-21T10:46:56;99778.69;;;15.21;41.17
84926;BME280;75187;48.190;16.294;2024-02-21T10:49:23;99786.59;;;15.12;42.20
84926;BME280;75187;48.190;16.294;2024-02-21T10:52:06;99756.94;;;14.68;43.65
84926;BME280;75187;48.190;16.294;2024-02-21T10:54:56;99784.94;;;14.81;43.10
84926;BME280;75187;48.190;16.294;2024-02-21T10:57:24;99740.97;;;14.38;42.81
84926;BME280;75187;48.190;16.294;2024-02-21T10:59:50;99730.91;;;14.11;44.16
84926;BME280;75187;48.190;16.294;2024-02-21T11:02:16;99741.50;;;14.11;44.15
84926;BME280;75187;48.190;16.294;2024-02-21T11:04:42;99771.53;;;14.12;44.28
84926;BME280;75187;48.190;16.294;2024-02-21T11:07:08;99771.97;;;13.96;45.24
84926;BME280;75187;48.190;16.294;2024-02-21T11:09:33;99696.88;;;13.44;45.19
84926;BME280;75187;48.190;16.294;2024-02-21T11:12:03;99764.09;;;13.74;45.01
84926;BME280;75187;48.190;16.294;2024-02-21T11:14:29;99744.53;;;13.55;45.38
84926;BME280;75187;48.190;16.294;2024-02-21T11:16:58;99736.25;;;13.48;44.69
84926;BME280;75187;48.190;16.294;2024-02-21T11:19:27;99767.03;;;13.60;44.59
84926;BME280;75187;48.190;16.294;2024-02-21T11:21:56;99732.09;;;13.35;45.48
84926;BME280;75187;48.190;16.294;2024-02-21T11:24:40;99763.44;;;13.50;46.36
84926;BME280;75187;48.190;16.294;2024-02-21T11:27:33;99755.50;;;13.50;45.71
84926;BME280;75187;48.190;16.294;2024-02-21T11:29:58;99708.28;;;13.24;45.41
84926;BME280;75187;48.190;16.294;2024-02-21T11:32:25;99703.94;;;13.23;45.89
84926;BME280;75187;48.190;16.294;2024-02-21T11:35:01;99747.00;;;13.47;45.82
84926;BME280;75187;48.190;16.294;2024-02-21T11:37:31;99694.81;;;13.16;46.90
84926;BME280;75187;48.190;16.294;2024-02-21T11:40:02;99711.25;;;13.41;46.18
84926;BME280;75187;48.190;16.294;2024-02-21T11:42:29;99739.38;;;13.53;46.65
84926;BME280;75187;48.190;16.294;2024-02-21T11:44:59;99705.09;;;13.41;45.92
84926;BME280;75187;48.190;16.294;2024-02-21T11:47:25;99694.56;;;13.50;46.48
84926;BME280;75187;48.190;16.294;2024-02-21T11:49:53;99708.16;;;13.57;46.01
84926;BME280;75187;48.190;16.294;2024-02-21T11:52:21;99664.19;;;13.34;44.98
84926;BME280;75187;48.190;16.294;2024-02-21T11:54:48;99693.63;;;13.51;45.40
84926;BME280;75187;48.190;16.294;2024-02-21T11:57:13;99673.78;;;13.46;45.60
84926;BME280;75187;48.190;16.294;2024-02-21T11:59:40;99687.59;;;13.49;44.99
84926;BME280;75187;48.190;16.294;2024-02-21T12:02:06;99676.28;;;13.47;44.64
84926;BME280;75187;48.190;16.294;2024-02-21T12:04:32;99636.00;;;13.12;45.83
84926;BME280;75187;48.190;16.294;2024-02-21T12:06:58;99686.88;;;13.47;45.63
84926;BME280;75187;48.190;16.294;2024-02-21T12:09:25;99664.31;;;13.32;45.55
84926;BME280;75187;48.190;16.294;2024-02-21T12:12:03;99644.00;;;13.22;45.35
84926;BME280;75187;48.190;16.294;2024-02-21T12:14:31;99670.66;;;13.41;44.30
84926;BME280;75187;48.190;16.294;2024-02-21T12:16:56;99672.09;;;13.45;44.68
84926;BME280;75187;48.190;16.294;2024-02-21T12:19:22;99658.75;;;13.35;45.08
84926;BME280;75187;48.190;16.294;2024-02-21T12:21:50;99642.19;;;13.22;45.35
84926;BME280;75187;48.190;16.294;2024-02-21T12:24:21;99581.88;;;12.94;44.56
84926;BME280;75187;48.190;16.294;2024-02-21T12:26:47;99663.41;;;13.43;45.54
84926;BME280;75187;48.190;16.294;2024-02-21T12:29:13;99647.19;;;13.36;44.92
84926;BME280;75187;48.190;16.294;2024-02-21T12:31:38;99668.22;;;13.49;44.86
84926;BME280;75187;48.190;16.294;2024-02-21T12:34:04;99657.47;;;13.50;44.87
84926;BME280;75187;48.190;16.294;2024-02-21T12:36:33;99656.06;;;13.46;45.88
84926;BME280;75187;48.190;16.294;2024-02-21T12:38:59;99668.06;;;13.50;44.68
84926;BME280;75187;48.190;16.294;2024-02-21T12:41:27;99625.09;;;13.26;45.07
84926;BME280;75187;48.190;16.294;2024-02-21T12:43:53;99601.31;;;13.15;43.80
84926;BME280;75187;48.190;16.294;2024-02-21T12:46:18;99646.47;;;13.34;44.74